sensor_id;sensor_type;location;lat;lon;timestamp;temperature;humidity
3980;DHT22;2004;52.452;13.120;2023-03-23T00:07:13;12.40;95.80
3980;DHT22;2004;52.452;13.120;2023-03-23T00:15:11;12.20;96.20
3980;DHT22;2004;52.452;13.120;2023-03-23T00:23:03;12.20;96.40
3980;DHT22;2004;52.452;13.120;2023-03-23T00:30:58;12.00;96.40
3980;DHT22;2004;52.452;13.120;2023-03-23T00:38:49;11.90;97.10
3980;DHT22;2004;52.452;13.120;2023-03-23T00:46:40;11.80;97.30
3980;DHT22;2004;52.452;13.120;2023-03-23T00:54:36;11.80;97.80
3980;DHT22;2004;52.452;13.120;2023-03-23T01:02:28;11.70;97.90
3980;DHT22;2004;52.452;13.120;2023-03-23T01:10:20;11.60;98.00
3980;DHT22;2004;52.452;13.120;2023-03-23T01:18:11;11.60;98.30
3980;DHT22;2004;52.452;13.120;2023-03-23T01:26:10;11.50;98.60
3980;DHT22;2004;52.452;13.120;2023-03-23T01:34:03;11.50;99.20
3980;DHT22;2004;52.452;13.120;2023-03-23T01:41:54;11.40;99.70
3980;DHT22;2004;52.452;13.120;2023-03-23T01:49:46;11.40;99.90
3980;DHT22;2004;52.452;13.120;2023-03-23T01:57:38;11.40;99.90
3980;DHT22;2004;52.452;13.120;2023-03-23T02:05:41;11.40;99.90
3980;DHT22;2004;52.452;13.120;2023-03-23T02:13:33;11.50;99.90
3980;DHT22;2004;52.452;13.120;2023-03-23T02:38:35;11.60;99.90
3980;DHT22;2004;52.452;13.120;2023-03-23T02:46:30;11.60;99.90
3980;DHT22;2004;52.452;13.120;2023-03-23T02:54:23;11.60;99.90
3980;DHT22;2004;52.452;13.120;2023-03-23T03:02:21;11.50;99.90
3980;DHT22;2004;52.452;13.120;2023-03-23T03:10:23;11.50;99.90
3980;DHT22;2004;52.452;13.120;2023-03-23T03:18:22;11.60;99.90
3980;DHT22;2004;52.452;13.120;2023-03-23T03:26:15;11.70;99.90
3980;DHT22;2004;52.452;13.120;2023-03-23T03:34:07;11.80;99.90
3980;DHT22;2004;52.452;13.120;2023-03-23T03:41:58;11.80;99.90
3980;DHT22;2004;52.452;13.120;2023-03-23T03:49:49;11.80;99.90
3980;DHT22;2004;52.452;13.120;2023-03-23T03:57:41;11.70;99.90
3980;DHT22;2004;52.452;13.120;2023-03-23T04:05:31;11.70;99.90
3980;DHT22;2004;52.452;13.120;2023-03-23T04:13:23;11.60;99.90
3980;DHT22;2004;52.452;13.120;2023-03-23T04:21:15;11.60;99.90
3980;DHT22;2004;52.452;13.120;2023-03-23T04:29:08;11.50;99.90
3980;DHT22;2004;52.452;13.120;2023-03-23T04:36:58;11.50;99.90
3980;DHT22;2004;52.452;13.120;2023-03-23T04:44:49;11.50;99.90
3980;DHT22;2004;52.452;13.120;2023-03-23T04:52:44;11.40;99.90
3980;DHT22;2004;52.452;13.120;2023-03-23T05:00:36;11.30;99.90
3980;DHT22;2004;52.452;13.120;2023-03-23T05:08:26;11.20;99.90
3980;DHT22;2004;52.452;13.120;2023-03-23T05:16:17;11.10;99.90
3980;DHT22;2004;52.452;13.120;2023-03-23T05:24:07;11.10;99.90
3980;DHT22;2004;52.452;13.120;2023-03-23T05:31:59;11.00;99.90
3980;DHT22;2004;52.452;13.120;2023-03-23T05:39:52;10.90;99.90
3980;DHT22;2004;52.452;13.120;2023-03-23T05:47:47;10.90;99.90
3980;DHT22;2004;52.452;13.120;2023-03-23T05:55:38;10.80;99.90
3980;DHT22;2004;52.452;13.120;2023-03-23T06:03:29;10.70;99.90
3980;DHT22;2004;52.452;13.120;2023-03-23T06:11:20;10.70;99.90
3980;DHT22;2004;52.452;13.120;2023-03-23T06:19:10;10.60;99.90
3980;DHT22;2004;52.452;13.120;2023-03-23T06:27:01;10.50;99.90
3980;DHT22;2004;52.452;13.120;2023-03-23T06:34:53;10.50;99.90
3980;DHT22;2004;52.452;13.120;2023-03-23T06:42:44;10.50;99.90
3980;DHT22;2004;52.452;13.120;2023-03-23T06:50:35;10.50;99.90
3980;DHT22;2004;52.452;13.120;2023-03-23T06:58:26;10.60;99.90
3980;DHT22;2004;52.452;13.120;2023-03-23T07:06:18;10.60;99.90
3980;DHT22;2004;52.452;13.120;2023-03-23T07:14:09;10.60;99.90
3980;DHT22;2004;52.452;13.120;2023-03-23T07:22:04;10.70;99.90
3980;DHT22;2004;52.452;13.120;2023-03-23T07:29:55;10.70;99.90
3980;DHT22;2004;52.452;13.120;2023-03-23T07:37:46;10.70;99.90
3980;DHT22;2004;52.452;13.120;2023-03-23T07:45:39;10.80;99.90
3980;DHT22;2004;52.452;13.120;2023-03-23T07:53:29;10.80;99.90
3980;DHT22;2004;52.452;13.120;2023-03-23T08:01:20;10.90;99.90
3980;DHT22;2004;52.452;13.120;2023-03-23T08:09:10;10.90;99.90
3980;DHT22;2004;52.452;13.120;2023-03-23T08:17:05;11.00;99.90
3980;DHT22;2004;52.452;13.120;2023-03-23T08:24:55;11.00;99.90
3980;DHT22;2004;52.452;13.120;2023-03-23T08:32:47;11.00;99.90
3980;DHT22;2004;52.452;13.120;2023-03-23T08:40:38;11.00;99.90
3980;DHT22;2004;52.452;13.120;2023-03-23T08:48:30;11.10;99.90
3980;DHT22;2004;52.452;13.120;2023-03-23T08:56:23;11.20;99.90
3980;DHT22;2004;52.452;13.120;2023-03-23T09:04:14;11.30;99.90
3980;DHT22;2004;52.452;13.120;2023-03-23T09:12:06;11.30;99.90
3980;DHT22;2004;52.452;13.120;2023-03-23T09:19:58;11.40;99.90
3980;DHT22;2004;52.452;13.120;2023-03-23T09:27:57;11.40;99.90
3980;DHT22;2004;52.452;13.120;2023-03-23T09:35:49;11.60;99.90
3980;DHT22;2004;52.452;13.120;2023-03-23T09:44:03;11.80;99.90
3980;DHT22;2004;52.452;13.120;2023-03-23T09:52:04;12.00;99.90
3980;DHT22;2004;52.452;13.120;2023-03-23T10:00:02;12.20;99.90
3980;DHT22;2004;52.452;13.120;2023-03-23T10:07:54;12.30;99.90
3980;DHT22;2004;52.452;13.120;2023-03-23T10:15:47;12.40;99.90
3980;DHT22;2004;52.452;13.120;2023-03-23T10:23:58;12.50;99.90
3980;DHT22;2004;52.452;13.120;2023-03-23T10:31:59;12.60;99.90
3980;DHT22;2004;52.452;13.120;2023-03-23T10:39:59;12.80;99.90
3980;DHT22;2004;52.452;13.120;2023-03-23T10:48:11;12.90;99.90
3980;DHT22;2004;52.452;13.120;2023-03-23T10:56:04;13.00;99.90
3980;DHT22;2004;52.452;13.120;2023-03-23T11:03:55;13.10;99.90
3980;DHT22;2004;52.452;13.120;2023-03-23T11:11:51;13.10;99.90
3980;DHT22;2004;52.452;13.120;2023-03-23T11:19:42;13.20;99.90
3980;DHT22;2004;52.452;13.120;2023-03-23T11:27:34;13.20;99.90
3980;DHT22;2004;52.452;13.120;2023-03-23T11:35:27;13.40;99.90
3980;DHT22;2004;52.452;13.120;2023-03-23T11:43:24;13.50;99.90
3980;DHT22;2004;52.452;13.120;2023-03-23T11:51:30;13.60;99.90
3980;DHT22;2004;52.452;13.120;2023-03-23T11:59:31;13.70;99.90
3980;DHT22;2004;52.452;13.120;2023-03-23T12:16:06;13.90;99.90
3980;DHT22;2004;52.452;13.120;2023-03-23T12:40:30;14.10;99.90
3980;DHT22;2004;52.452;13.120;2023-03-23T12:48:43;14.20;99.90
3980;DHT22;2004;52.452;13.120;2023-03-23T12:57:01;14.30;99.90
3980;DHT22;2004;52.452;13.120;2023-03-23T13:05:01;14.50;99.90
3980;DHT22;2004;52.452;13.120;2023-03-23T13:12:57;14.70;99.90
3980;DHT22;2004;52.452;13.120;2023-03-23T13:21:28;14.90;99.90
3980;DHT22;2004;52.452;13.120;2023-03-23T13:29:18;15.10;99.90
3980;DHT22;2004;52.452;13.120;2023-03-23T13:37:24;15.20;99.90
3980;DHT22;2004;52.452;13.120;2023-03-23T13:45:35;15.20;99.90
3980;DHT22;2004;52.452;13.120;2023-03-23T13:53:28;15.40;99.90
3980;DHT22;2004;52.452;13.120;2023-03-23T14:01:35;15.40;98.50
3980;DHT22;2004;52.452;13.120;2023-03-23T14:09:31;15.40;97.90
3980;DHT22;2004;52.452;13.120;2023-03-23T14:17:33;15.60;96.30
3980;DHT22;2004;52.452;13.120;2023-03-23T14:25:30;15.70;94.90
3980;DHT22;2004;52.452;13.120;2023-03-23T14:33:25;15.50;94.60
3980;DHT22;2004;52.452;13.120;2023-03-23T14:41:17;15.30;94.40
3980;DHT22;2004;52.452;13.120;2023-03-23T14:49:14;15.20;95.80
3980;DHT22;2004;52.452;13.120;2023-03-23T14:57:12;15.40;95.20
3980;DHT22;2004;52.452;13.120;2023-03-23T15:05:13;15.30;96.00
3980;DHT22;2004;52.452;13.120;2023-03-23T15:13:04;15.30;95.80
3980;DHT22;2004;52.452;13.120;2023-03-23T15:20:55;15.30;95.40
3980;DHT22;2004;52.452;13.120;2023-03-23T15:28:48;15.30;94.40
3980;DHT22;2004;52.452;13.120;2023-03-23T15:36:42;15.40;92.70
3980;DHT22;2004;52.452;13.120;2023-03-23T15:44:34;15.40;91.10
3980;DHT22;2004;52.452;13.120;2023-03-23T15:52:25;15.40;91.80
3980;DHT22;2004;52.452;13.120;2023-03-23T16:00:17;15.40;91.00
3980;DHT22;2004;52.452;13.120;2023-03-23T16:08:10;15.40;90.50
3980;DHT22;2004;52.452;13.120;2023-03-23T16:16:02;15.30;90.10
3980;DHT22;2004;52.452;13.120;2023-03-23T16:23:55;15.20;90.00
3980;DHT22;2004;52.452;13.120;2023-03-23T16:31:45;15.10;90.30
3980;DHT22;2004;52.452;13.120;2023-03-23T16:39:36;15.20;90.80
3980;DHT22;2004;52.452;13.120;2023-03-23T16:47:26;15.00;93.70
3980;DHT22;2004;52.452;13.120;2023-03-23T16:55:17;14.60;96.10
3980;DHT22;2004;52.452;13.120;2023-03-23T17:03:08;14.40;98.40
3980;DHT22;2004;52.452;13.120;2023-03-23T17:10:59;14.10;99.80
3980;DHT22;2004;52.452;13.120;2023-03-23T17:18:51;13.90;99.90
3980;DHT22;2004;52.452;13.120;2023-03-23T17:26:43;13.70;99.90
3980;DHT22;2004;52.452;13.120;2023-03-23T17:34:34;13.40;99.90
3980;DHT22;2004;52.452;13.120;2023-03-23T17:42:24;13.20;99.90
3980;DHT22;2004;52.452;13.120;2023-03-23T17:50:15;12.80;99.90
3980;DHT22;2004;52.452;13.120;2023-03-23T17:58:05;12.70;99.90
3980;DHT22;2004;52.452;13.120;2023-03-23T18:06:01;12.50;99.90
3980;DHT22;2004;52.452;13.120;2023-03-23T18:13:52;12.40;99.90
3980;DHT22;2004;52.452;13.120;2023-03-23T18:21:44;12.40;99.90
3980;DHT22;2004;52.452;13.120;2023-03-23T18:29:34;12.20;99.90
3980;DHT22;2004;52.452;13.120;2023-03-23T18:37:26;12.00;99.90
3980;DHT22;2004;52.452;13.120;2023-03-23T18:45:17;11.90;99.90
3980;DHT22;2004;52.452;13.120;2023-03-23T18:53:07;11.80;99.90
3980;DHT22;2004;52.452;13.120;2023-03-23T19:01:02;11.80;99.90
3980;DHT22;2004;52.452;13.120;2023-03-23T19:08:53;11.80;99.90
3980;DHT22;2004;52.452;13.120;2023-03-23T19:16:44;11.80;99.90
3980;DHT22;2004;52.452;13.120;2023-03-23T19:24:34;11.80;99.90
3980;DHT22;2004;52.452;13.120;2023-03-23T19:32:25;11.80;99.90
3980;DHT22;2004;52.452;13.120;2023-03-23T19:40:16;11.80;99.90
3980;DHT22;2004;52.452;13.120;2023-03-23T19:48:09;11.70;99.90
3980;DHT22;2004;52.452;13.120;2023-03-23T19:55:59;11.70;99.90
3980;DHT22;2004;52.452;13.120;2023-03-23T20:03:50;11.70;99.90
3980;DHT22;2004;52.452;13.120;2023-03-23T20:11:41;11.70;99.90
3980;DHT22;2004;52.452;13.120;2023-03-23T20:19:32;11.70;99.90
3980;DHT22;2004;52.452;13.120;2023-03-23T20:27:24;11.70;99.90
3980;DHT22;2004;52.452;13.120;2023-03-23T20:35:14;11.70;99.90
3980;DHT22;2004;52.452;13.120;2023-03-23T20:43:05;11.60;99.90
3980;DHT22;2004;52.452;13.120;2023-03-23T20:50:58;11.60;99.90
3980;DHT22;2004;52.452;13.120;2023-03-23T20:58:49;11.60;99.90
3980;DHT22;2004;52.452;13.120;2023-03-23T21:06:42;11.60;99.90
3980;DHT22;2004;52.452;13.120;2023-03-23T21:14:33;11.50;99.90
3980;DHT22;2004;52.452;13.120;2023-03-23T21:22:23;11.40;99.90
3980;DHT22;2004;52.452;13.120;2023-03-23T21:30:14;11.40;99.90
3980;DHT22;2004;52.452;13.120;2023-03-23T21:38:07;11.30;99.90
3980;DHT22;2004;52.452;13.120;2023-03-23T21:46:05;11.20;99.90
3980;DHT22;2004;52.452;13.120;2023-03-23T21:53:58;11.00;99.90
3980;DHT22;2004;52.452;13.120;2023-03-23T22:01:48;10.90;99.90
3980;DHT22;2004;52.452;13.120;2023-03-23T22:09:40;10.80;99.90
3980;DHT22;2004;52.452;13.120;2023-03-23T22:17:37;10.70;99.90
3980;DHT22;2004;52.452;13.120;2023-03-23T22:25:28;10.60;99.90
3980;DHT22;2004;52.452;13.120;2023-03-23T22:33:19;10.50;99.90
3980;DHT22;2004;52.452;13.120;2023-03-23T22:41:24;10.40;99.90
3980;DHT22;2004;52.452;13.120;2023-03-23T22:49:15;10.30;99.90
3980;DHT22;2004;52.452;13.120;2023-03-23T22:57:10;10.20;99.90
3980;DHT22;2004;52.452;13.120;2023-03-23T23:05:00;10.20;99.90
3980;DHT22;2004;52.452;13.120;2023-03-23T23:12:53;10.10;99.90
3980;DHT22;2004;52.452;13.120;2023-03-23T23:20:47;10.00;99.90
3980;DHT22;2004;52.452;13.120;2023-03-23T23:28:42;10.00;99.90
3980;DHT22;2004;52.452;13.120;2023-03-23T23:36:33;9.90;99.90
3980;DHT22;2004;52.452;13.120;2023-03-23T23:44:23;9.80;99.90
3980;DHT22;2004;52.452;13.120;2023-03-23T23:52:15;9.90;99.90
